createdAt,value
2018-07-05T00:01:38.907Z,85.90
2018-07-05T00:06:52.120Z,86.10
2018-07-05T00:09:31.732Z,86.40
2018-07-05T00:12:11.559Z,86.30
2018-07-05T00:14:51.047Z,86.50
2018-07-05T00:17:30.650Z,88.10
2018-07-05T00:20:10.308Z,88.60
2018-07-05T00:22:49.900Z,89.20
2018-07-05T00:25:29.542Z,90.00
2018-07-05T00:28:09.042Z,89.00
2018-07-05T00:30:48.612Z,88.70
2018-07-05T00:33:28.142Z,88.10
2018-07-05T00:36:07.743Z,88.60
2018-07-05T00:38:47.365Z,89.00
2018-07-05T00:41:27.092Z,88.20
2018-07-05T00:44:06.604Z,89.00
2018-07-05T00:46:46.114Z,89.40
2018-07-05T00:49:25.747Z,90.00
2018-07-05T00:52:05.522Z,89.50
2018-07-05T00:54:45.111Z,90.20
2018-07-05T00:57:24.650Z,90.50
2018-07-05T01:00:04.171Z,90.60
2018-07-05T01:02:43.688Z,90.70
2018-07-05T01:05:23.211Z,90.00
2018-07-05T01:08:02.912Z,90.00
2018-07-05T01:10:42.377Z,90.00
2018-07-05T01:13:21.895Z,90.40
2018-07-05T01:16:01.386Z,90.30
2018-07-05T01:18:40.874Z,90.40
2018-07-05T01:21:20.493Z,90.70
2018-07-05T01:24:00.040Z,90.90
2018-07-05T01:26:39.709Z,90.80
2018-07-05T01:29:19.301Z,90.90
2018-07-05T01:31:58.817Z,90.90
2018-07-05T01:34:38.212Z,90.60
2018-07-05T01:37:17.681Z,90.80
2018-07-05T01:39:57.176Z,90.80
2018-07-05T01:42:36.646Z,90.80
2018-07-05T01:45:16.197Z,91.20
2018-07-05T01:47:55.932Z,91.10
2018-07-05T01:50:35.456Z,91.50
2018-07-05T01:53:15.012Z,91.50
2018-07-05T01:55:54.751Z,91.40
2018-07-05T01:58:34.418Z,91.10
2018-07-05T02:01:14.072Z,91.10
2018-07-05T02:03:53.583Z,91.60
2018-07-05T02:06:33.105Z,91.70
2018-07-05T02:09:12.738Z,92.30
2018-07-05T02:11:52.270Z,92.40
2018-07-05T02:14:31.836Z,92.20
2018-07-05T02:17:11.411Z,91.60
2018-07-05T02:22:24.607Z,91.90
2018-07-05T02:25:04.033Z,91.60
2018-07-05T02:27:44.505Z,91.60
2018-07-05T02:30:24.052Z,92.30
2018-07-05T02:33:03.432Z,92.40
2018-07-05T02:35:42.950Z,92.20
2018-07-05T02:38:22.503Z,92.40
2018-07-05T02:41:02.413Z,92.10
2018-07-05T02:43:42.139Z,91.50
2018-07-05T02:46:21.671Z,91.10
2018-07-05T02:49:01.252Z,89.90
2018-07-05T02:51:41.020Z,88.60
2018-07-05T02:54:20.615Z,89.20
2018-07-05T02:57:00.216Z,89.50
2018-07-05T02:59:39.894Z,88.40
2018-07-05T03:02:19.487Z,89.30
2018-07-05T03:04:59.108Z,88.80
2018-07-05T03:10:12.138Z,90.10
2018-07-05T03:12:51.675Z,89.90
2018-07-05T03:15:33.488Z,90.00
2018-07-05T03:18:13.168Z,90.00
2018-07-05T03:20:52.870Z,90.00
2018-07-05T03:23:32.533Z,89.40
2018-07-05T03:26:12.243Z,89.90
2018-07-05T03:28:52.771Z,89.60
2018-07-05T03:31:33.502Z,88.90
2018-07-05T03:34:12.944Z,88.60
2018-07-05T03:36:53.539Z,88.70
2018-07-05T03:39:33.229Z,87.00
2018-07-05T03:42:12.824Z,86.70
2018-07-05T03:44:52.532Z,87.50
2018-07-05T03:47:32.105Z,87.40
2018-07-05T03:50:11.714Z,86.80
2018-07-05T03:52:51.287Z,86.70
2018-07-05T03:55:30.951Z,86.20
2018-07-05T03:58:10.505Z,85.20
2018-07-05T04:00:49.966Z,85.90
2018-07-05T04:03:29.371Z,84.60
2018-07-05T04:06:10.063Z,85.50
2018-07-05T04:08:49.671Z,85.10
2018-07-05T04:11:29.231Z,83.80
2018-07-05T04:14:08.750Z,85.50
2018-07-05T04:16:48.361Z,83.70
2018-07-05T04:19:28.042Z,83.10
2018-07-05T04:22:07.634Z,82.70
2018-07-05T04:24:47.414Z,83.30
2018-07-05T04:27:27.084Z,84.40
2018-07-05T04:30:06.706Z,84.30
2018-07-05T04:32:46.152Z,85.10
2018-07-05T04:37:59.116Z,83.30
2018-07-05T04:40:38.779Z,83.00
2018-07-05T04:43:18.643Z,82.90
2018-07-05T04:45:58.063Z,82.50
2018-07-05T04:48:37.513Z,83.30
2018-07-05T04:51:17.050Z,82.80
2018-07-05T04:53:56.715Z,81.20
2018-07-05T04:56:36.344Z,81.70
2018-07-05T04:59:16.007Z,81.70
2018-07-05T05:01:55.623Z,80.80
2018-07-05T05:04:35.300Z,80.60
2018-07-05T05:09:48.592Z,75.80
2018-07-05T05:12:28.157Z,75.80
2018-07-05T05:15:08.115Z,77.50
2018-07-05T05:17:47.875Z,76.90
2018-07-05T05:25:34.670Z,76.20
2018-07-05T05:28:14.249Z,76.30
2018-07-05T05:33:27.508Z,72.80
2018-07-05T05:36:06.972Z,70.20
2018-07-05T05:38:46.433Z,71.30
2018-07-05T05:41:25.938Z,73.50
2018-07-05T05:44:05.630Z,74.00
2018-07-05T05:46:45.153Z,72.50
2018-07-05T05:49:24.631Z,69.10
2018-07-05T05:52:04.162Z,67.50
2018-07-05T05:54:43.675Z,64.00
2018-07-05T05:57:23.341Z,63.70
2018-07-05T06:00:02.770Z,63.80
2018-07-05T06:02:42.280Z,63.70
2018-07-05T06:05:22.025Z,62.90
2018-07-05T06:08:01.603Z,61.50
2018-07-05T06:10:41.032Z,62.60
2018-07-05T06:13:20.597Z,63.10
2018-07-05T06:16:00.316Z,64.00
2018-07-05T06:18:39.752Z,65.60
2018-07-05T06:21:19.348Z,66.30
2018-07-05T06:23:58.890Z,62.20
2018-07-05T06:26:38.516Z,60.30
2018-07-05T06:29:17.920Z,61.50
2018-07-05T06:34:31.127Z,57.50
2018-07-05T06:37:10.575Z,57.80
2018-07-05T06:39:50.256Z,56.10
2018-07-05T06:42:29.857Z,57.20
2018-07-05T06:45:09.363Z,56.20
2018-07-05T06:47:48.902Z,58.20
2018-07-05T06:50:28.338Z,58.70
2018-07-05T06:53:08.013Z,59.90
2018-07-05T06:55:47.675Z,59.70
2018-07-05T07:06:08.115Z,49.00
2018-07-05T07:08:47.547Z,49.00
2018-07-05T07:11:27.256Z,47.90
2018-07-05T07:14:06.735Z,46.10
2018-07-05T07:16:46.263Z,45.50
2018-07-05T07:19:25.723Z,44.20
2018-07-05T07:22:05.429Z,43.60
2018-07-05T07:24:45.033Z,43.60
2018-07-05T07:27:24.467Z,42.10
2018-07-05T07:30:04.076Z,40.00
2018-07-05T07:35:17.073Z,38.70
2018-07-05T07:37:56.545Z,36.80
2018-07-05T07:40:36.411Z,30.50
2018-07-05T07:43:03.721Z,25.70
2018-07-05T07:45:31.071Z,26.60
2018-07-05T07:47:58.277Z,25.10
2018-07-05T07:50:25.541Z,23.50
2018-07-05T07:52:52.815Z,23.80
2018-07-05T07:55:20.130Z,22.70
2018-07-05T07:57:47.481Z,21.80
2018-07-05T08:00:14.816Z,21.50
2018-07-05T08:02:42.174Z,21.60
2018-07-05T08:05:09.459Z,22.80
2018-07-05T08:07:36.828Z,23.20
2018-07-05T08:10:04.099Z,27.50
2018-07-05T08:12:31.475Z,30.30
2018-07-05T08:14:58.772Z,30.90
2018-07-05T08:17:26.112Z,30.20
2018-07-05T08:19:53.409Z,30.00
2018-07-05T08:22:20.685Z,32.90
2018-07-05T08:24:48.008Z,34.30
2018-07-05T08:27:15.265Z,35.50
2018-07-05T08:29:42.573Z,35.20
2018-07-05T08:32:09.839Z,35.00
2018-07-05T08:34:37.120Z,36.80
2018-07-05T08:37:04.390Z,36.30
2018-07-05T08:39:31.755Z,38.30
2018-07-05T08:41:59.023Z,36.30
2018-07-05T08:44:26.309Z,36.60
2018-07-05T08:46:53.586Z,34.60
2018-07-05T08:49:20.871Z,34.90
2018-07-05T08:51:48.151Z,33.30
2018-07-05T08:54:15.474Z,37.70
2018-07-05T08:56:42.775Z,38.30
2018-07-05T08:59:10.068Z,37.50
2018-07-05T09:01:37.348Z,33.80
2018-07-05T09:04:04.624Z,30.20
2018-07-05T09:06:31.876Z,30.00
2018-07-05T09:08:59.175Z,30.80
2018-07-05T09:13:54.000Z,35.60
2018-07-05T09:16:21.262Z,35.20
2018-07-05T09:18:48.556Z,35.80
2018-07-05T09:21:15.819Z,33.70
2018-07-05T09:23:43.095Z,35.70
2018-07-05T09:26:10.408Z,31.70
2018-07-05T09:28:37.687Z,29.90
2018-07-05T09:31:04.990Z,33.30
2018-07-05T09:33:32.329Z,33.80
2018-07-05T09:36:00.163Z,33.20
2018-07-05T09:38:27.430Z,37.10
2018-07-05T09:40:54.714Z,37.40
2018-07-05T09:43:21.989Z,35.90
2018-07-05T09:45:49.263Z,41.70
2018-07-05T09:48:16.574Z,40.50
2018-07-05T09:50:44.000Z,43.50
2018-07-05T09:53:11.312Z,40.20
2018-07-05T09:55:38.614Z,44.90
2018-07-05T09:58:05.929Z,42.10
2018-07-05T10:00:38.730Z,38.90
2018-07-05T10:03:06.088Z,38.40
2018-07-05T10:05:33.382Z,37.10
2018-07-05T10:08:01.969Z,37.30
2018-07-05T10:10:29.310Z,35.70
2018-07-05T10:12:56.626Z,38.10
2018-07-05T10:15:23.947Z,36.90
2018-07-05T10:17:51.209Z,36.90
2018-07-05T10:20:18.522Z,38.50
2018-07-05T10:22:47.589Z,32.70
2018-07-05T10:25:14.897Z,30.00
2018-07-05T10:27:42.163Z,29.30
2018-07-05T10:30:21.865Z,29.80
2018-07-05T10:33:01.527Z,29.10
2018-07-05T10:35:28.821Z,33.60
2018-07-05T10:37:58.385Z,30.10
2018-07-05T10:40:39.005Z,31.90
2018-07-05T10:43:18.697Z,34.00
2018-07-05T10:45:58.474Z,30.60
2018-07-05T10:48:38.187Z,30.20
2018-07-05T10:51:17.957Z,30.20
2018-07-05T10:56:31.290Z,27.00
2018-07-05T11:01:44.323Z,28.00
2018-07-05T11:04:23.755Z,27.40
2018-07-05T11:07:03.589Z,27.80
2018-07-05T11:09:43.049Z,27.50
2018-07-05T11:12:22.491Z,27.80
2018-07-05T11:15:01.981Z,28.00
2018-07-05T11:17:41.489Z,28.40
2018-07-05T11:20:21.896Z,27.30
2018-07-05T11:23:01.644Z,27.40
2018-07-05T11:25:41.377Z,28.80
2018-07-05T11:28:20.867Z,26.90
2018-07-05T11:31:00.371Z,28.50
2018-07-05T11:33:39.856Z,27.70
2018-07-05T11:36:19.421Z,27.00
2018-07-05T11:38:58.969Z,27.50
2018-07-05T11:41:38.549Z,28.10
2018-07-05T11:44:18.023Z,28.60
2018-07-05T11:46:57.630Z,27.90
2018-07-05T11:49:37.326Z,29.60
2018-07-05T11:52:17.064Z,28.70
2018-07-05T11:54:56.579Z,29.10
2018-07-05T11:57:36.174Z,27.80
2018-07-05T12:00:15.723Z,28.00
2018-07-05T12:02:55.295Z,27.20
2018-07-05T12:05:34.863Z,27.40
2018-07-05T12:08:14.344Z,26.50
2018-07-05T12:10:53.818Z,26.80
2018-07-05T12:13:33.331Z,27.00
2018-07-05T12:16:13.037Z,26.10
2018-07-05T12:18:52.603Z,26.90
2018-07-05T12:24:05.737Z,28.40
2018-07-05T12:26:45.481Z,29.40
2018-07-05T12:29:25.061Z,28.10
2018-07-05T12:32:04.489Z,27.30
2018-07-05T12:34:44.045Z,26.20
2018-07-05T12:37:23.724Z,26.20
2018-07-05T12:40:03.328Z,26.40
2018-07-05T12:42:43.009Z,26.20
2018-07-05T12:45:22.597Z,26.30
2018-07-05T12:48:02.127Z,26.60
2018-07-05T12:50:41.707Z,26.90
2018-07-05T12:53:21.282Z,29.40
2018-07-05T12:58:34.440Z,30.00
2018-07-05T13:01:14.161Z,31.60
2018-07-05T13:03:53.782Z,32.60
2018-07-05T13:06:33.476Z,31.20
2018-07-05T13:09:12.983Z,34.00
2018-07-05T13:11:52.488Z,32.30
2018-07-05T13:14:32.062Z,31.40
2018-07-05T13:17:11.540Z,30.70
2018-07-05T13:19:51.070Z,31.80
2018-07-05T13:22:30.642Z,29.40
2018-07-05T13:25:10.304Z,29.90
2018-07-05T13:27:49.841Z,30.70
2018-07-05T13:30:29.479Z,29.80
2018-07-05T13:33:09.294Z,30.00
2018-07-05T13:35:49.013Z,30.40
2018-07-05T13:38:28.822Z,30.30
2018-07-05T13:41:08.710Z,32.40
2018-07-05T13:46:22.305Z,33.60
2018-07-05T13:49:01.819Z,30.50
2018-07-05T13:51:41.372Z,31.50
2018-07-05T13:54:20.993Z,31.40
2018-07-05T13:57:06.351Z,28.70
2018-07-05T13:59:46.146Z,30.60
2018-07-05T14:02:26.045Z,32.40
2018-07-05T14:05:05.668Z,33.00
2018-07-05T14:07:45.324Z,34.20
2018-07-05T14:10:25.112Z,34.20
2018-07-05T14:13:04.772Z,33.40
2018-07-05T14:15:44.426Z,31.00
2018-07-05T14:18:24.092Z,31.10
2018-07-05T14:21:03.546Z,33.00
2018-07-05T14:23:43.108Z,31.20
2018-07-05T14:26:22.817Z,33.00
2018-07-05T14:31:36.194Z,34.10
2018-07-05T14:34:15.580Z,32.30
2018-07-05T14:39:28.549Z,33.70
2018-07-05T14:42:07.992Z,31.90
2018-07-05T14:44:47.607Z,32.90
2018-07-05T14:47:27.365Z,32.50
2018-07-05T14:50:06.929Z,34.60
2018-07-05T14:52:46.618Z,36.00
2018-07-05T14:55:26.269Z,34.40
2018-07-05T14:58:05.879Z,34.70
2018-07-05T15:00:45.607Z,35.80
2018-07-05T15:03:25.239Z,35.40
2018-07-05T15:06:04.795Z,34.40
2018-07-05T15:08:44.636Z,35.00
2018-07-05T15:11:24.126Z,35.20
2018-07-05T15:14:03.657Z,36.20
2018-07-05T15:16:43.172Z,34.10
2018-07-05T15:19:22.821Z,34.00
2018-07-05T15:22:02.367Z,34.20
2018-07-05T15:24:41.865Z,35.90
2018-07-05T15:27:21.315Z,35.60
2018-07-05T15:30:00.846Z,36.40
2018-07-05T15:32:40.432Z,37.60
2018-07-05T15:37:53.466Z,35.80
2018-07-05T15:43:06.699Z,35.30
2018-07-05T15:45:46.354Z,35.40
2018-07-05T15:48:26.448Z,35.90
2018-07-05T15:51:09.862Z,35.70
2018-07-05T15:53:49.528Z,35.10
2018-07-05T15:56:29.144Z,36.10
2018-07-05T15:59:08.741Z,36.60
2018-07-05T16:01:49.724Z,36.90
2018-07-05T16:04:29.251Z,37.60
2018-07-05T16:07:08.834Z,37.70
2018-07-05T16:09:48.331Z,36.80
2018-07-05T16:12:27.911Z,36.40
2018-07-05T16:15:07.438Z,37.50
2018-07-05T16:20:20.516Z,39.40
2018-07-05T16:23:00.047Z,38.10
2018-07-05T16:25:39.777Z,38.00
2018-07-05T16:28:19.349Z,39.00
2018-07-05T16:30:58.768Z,38.10
2018-07-05T16:33:38.308Z,38.20
2018-07-05T16:36:17.804Z,40.90
2018-07-05T16:38:57.339Z,38.70
2018-07-05T16:41:36.912Z,39.20
2018-07-05T16:44:16.930Z,38.30
2018-07-05T16:49:30.266Z,40.60
2018-07-05T16:54:43.501Z,40.60
2018-07-05T16:57:23.188Z,39.90
2018-07-05T17:00:02.757Z,40.80
2018-07-05T17:02:42.174Z,40.80
2018-07-05T17:05:21.710Z,42.60
2018-07-05T17:08:01.313Z,42.20
2018-07-05T17:10:40.881Z,42.10
2018-07-05T17:13:20.352Z,40.70
2018-07-05T17:16:00.395Z,41.10
2018-07-05T17:18:39.957Z,42.70
2018-07-05T17:21:19.361Z,42.30
2018-07-05T17:23:58.868Z,42.20
2018-07-05T17:26:38.501Z,42.30
2018-07-05T17:29:18.000Z,42.40
2018-07-05T17:31:57.480Z,43.00
2018-07-05T17:34:37.180Z,42.30
2018-07-05T17:37:16.698Z,43.00
2018-07-05T17:39:56.272Z,43.40
2018-07-05T17:42:35.998Z,41.60
2018-07-05T17:45:15.786Z,43.30
2018-07-05T17:47:55.343Z,43.60
2018-07-05T17:50:34.877Z,44.20
2018-07-05T17:53:14.492Z,42.60
2018-07-05T17:55:54.673Z,43.10
2018-07-05T18:01:07.800Z,43.70
2018-07-05T18:03:47.349Z,43.60
2018-07-05T18:06:26.943Z,44.20
2018-07-05T18:09:06.558Z,44.60
2018-07-05T18:11:46.150Z,44.20
2018-07-05T18:14:25.804Z,44.00
2018-07-05T18:17:05.320Z,44.20
2018-07-05T18:19:44.777Z,44.20
2018-07-05T18:22:24.318Z,44.10
2018-07-05T18:25:07.327Z,43.10
2018-07-05T18:27:47.084Z,44.70
2018-07-05T18:30:26.630Z,44.60
2018-07-05T18:33:06.225Z,44.00
2018-07-05T18:35:45.647Z,45.30
2018-07-05T18:38:24.991Z,44.50
2018-07-05T18:43:38.133Z,45.20
2018-07-05T18:46:17.758Z,44.90
2018-07-05T18:48:57.294Z,45.50
2018-07-05T18:51:36.786Z,45.40
2018-07-05T18:54:16.280Z,45.40
2018-07-05T18:56:55.970Z,45.30
2018-07-05T18:59:36.664Z,45.20
2018-07-05T19:02:16.249Z,45.60
2018-07-05T19:04:55.786Z,45.80
2018-07-05T19:07:35.315Z,46.30
2018-07-05T19:10:14.846Z,46.50
2018-07-05T19:12:54.461Z,46.70
2018-07-05T19:15:33.914Z,46.90
2018-07-05T19:18:13.386Z,46.90
2018-07-05T19:20:53.011Z,46.90
2018-07-05T19:23:32.701Z,47.20
2018-07-05T19:28:46.115Z,46.80
2018-07-05T19:31:25.606Z,47.60
2018-07-05T19:34:05.026Z,47.80
2018-07-05T19:36:44.562Z,48.80
2018-07-05T19:39:24.261Z,48.10
2018-07-05T19:42:03.898Z,48.60
2018-07-05T19:44:44.628Z,48.80
2018-07-05T19:47:24.227Z,49.40
2018-07-05T19:50:03.847Z,49.30
2018-07-05T19:52:43.337Z,49.60
2018-07-05T19:55:23.137Z,49.30
2018-07-05T19:58:02.693Z,49.70
2018-07-05T20:00:42.236Z,49.50
2018-07-05T20:03:21.724Z,49.20
2018-07-05T20:06:01.358Z,49.70
2018-07-05T20:08:40.875Z,49.90
2018-07-05T20:11:20.505Z,50.50
2018-07-05T20:13:59.921Z,50.60
2018-07-05T20:16:40.024Z,50.80
2018-07-05T20:19:19.532Z,51.20
2018-07-05T20:21:59.008Z,52.20
2018-07-05T20:24:40.878Z,51.80
2018-07-05T20:27:20.372Z,51.70
2018-07-05T20:30:00.098Z,52.70
2018-07-05T20:32:39.674Z,53.10
2018-07-05T20:35:19.336Z,53.50
2018-07-05T20:37:58.932Z,53.70
2018-07-05T20:40:38.530Z,54.30
2018-07-05T20:43:18.021Z,54.70
2018-07-05T20:45:57.456Z,55.00
2018-07-05T20:48:36.996Z,56.20
2018-07-05T20:51:16.615Z,56.90
2018-07-05T20:53:56.077Z,57.40
2018-07-05T20:56:35.501Z,57.20
2018-07-05T20:59:15.085Z,57.30
2018-07-05T21:01:54.625Z,58.00
2018-07-05T21:07:07.728Z,59.40
2018-07-05T21:09:47.419Z,60.00
2018-07-05T21:15:00.798Z,60.80
2018-07-05T21:17:40.322Z,59.70
2018-07-05T21:20:19.781Z,59.70
2018-07-05T21:22:59.341Z,60.10
2018-07-05T21:25:40.367Z,60.40
2018-07-05T21:28:19.952Z,61.50
2018-07-05T21:30:59.500Z,61.70
2018-07-05T21:33:39.211Z,62.40
2018-07-05T21:36:18.829Z,64.60
2018-07-05T21:38:58.484Z,65.80
2018-07-05T21:41:38.148Z,65.80
2018-07-05T21:44:17.762Z,66.10
2018-07-05T21:46:57.370Z,65.20
2018-07-05T21:52:10.572Z,65.10
2018-07-05T21:54:50.074Z,64.80
2018-07-05T21:57:29.670Z,64.30
2018-07-05T22:00:09.363Z,64.80
2018-07-05T22:02:48.939Z,64.00
2018-07-05T22:05:28.592Z,63.70
2018-07-05T22:08:08.224Z,63.40
2018-07-05T22:10:47.660Z,62.80
2018-07-05T22:13:28.314Z,62.90
2018-07-05T22:16:07.822Z,62.70
2018-07-05T22:21:26.441Z,63.60
2018-07-05T22:24:11.480Z,64.60
2018-07-05T22:26:51.107Z,64.80
2018-07-05T22:29:36.188Z,64.90
2018-07-05T22:32:17.153Z,65.50
2018-07-05T22:34:56.740Z,65.60
2018-07-05T22:37:36.293Z,66.40
2018-07-05T22:40:15.751Z,66.30
2018-07-05T22:45:28.769Z,67.80
2018-07-05T22:48:08.386Z,67.60
2018-07-05T22:50:47.963Z,67.80
2018-07-05T22:53:27.504Z,68.30
2018-07-05T22:56:07.097Z,69.00
2018-07-05T22:58:46.836Z,69.70
2018-07-05T23:01:26.646Z,69.20
2018-07-05T23:04:06.171Z,69.90
2018-07-05T23:06:45.724Z,70.80
2018-07-05T23:09:25.413Z,72.00
2018-07-05T23:12:05.032Z,72.10
2018-07-05T23:14:44.572Z,72.60
2018-07-05T23:17:24.975Z,73.20
2018-07-05T23:20:04.465Z,74.00
2018-07-05T23:22:43.917Z,74.40
2018-07-05T23:25:23.355Z,75.00
2018-07-05T23:28:03.099Z,75.80
2018-07-05T23:30:43.528Z,75.70
2018-07-05T23:33:23.141Z,76.70
2018-07-05T23:36:02.730Z,77.10
2018-07-05T23:38:42.433Z,77.40
2018-07-05T23:41:21.965Z,77.70
2018-07-05T23:44:01.524Z,78.80
2018-07-05T23:46:41.045Z,78.50
2018-07-05T23:49:20.545Z,78.20
2018-07-05T23:51:59.957Z,78.60
2018-07-05T23:57:13.074Z,79.60
2018-07-05T23:59:52.462Z,79.50
